Time;durP1;ratioP1;P1;durP2;ratioP2;P2;SDS_P1;SDS_P2;PMS_P1;PMS_P2;Temp;Humidity;BMP_temperature;BMP_pressure;BME280_temperature;BME280_humidity;BME280_pressure;Samples;Min_cycle;Max_cycle;Signal;HPM_P1;HPM_P2
2024/03/16 00:01:18;;;;;;;16.70;5.07;;;;;;;13.11;80.83;99139.19;6072098;23;20049;-92
2024/03/16 00:03:45;;;;;;;13.35;4.80;;;;;;;13.12;81.23;99132.94;6072432;23;20331;-92
2024/03/16 00:06:11;;;;;;;14.82;4.82;;;;;;;13.12;81.33;99134.75;6072420;23;20029;-92
2024/03/16 00:08:38;;;;;;;13.15;5.35;;;;;;;13.13;81.06;99136.41;6072006;23;20030;-92
2024/03/16 00:11:05;;;;;;;9.60;4.97;;;;;;;13.12;81.14;99126.81;6072519;23;20031;-92
2024/03/16 00:13:31;;;;;;;10.20;4.35;;;;;;;13.12;81.07;99138.22;6072008;23;20015;-92
2024/03/16 00:16:11;;;;;;;12.50;5.05;;;;;;;13.08;79.76;99128.84;6072540;23;20089;-92
2024/03/16 12:42:01;;;;;;;;;;;;;;;;;;;;;
2024/03/16 12:45:04;;;;;;;6.32;1.17;;;;;;;12.41;66.69;100186.28;6065829;23;20026;-89
2024/03/16 12:48:24;;;;;;;;;;;;;;;;;;;;;
2024/03/16 13:01:08;;;;;;;5.25;1.48;;;;;;;12.43;67.22;100200.25;6124063;23;20040;-88
2024/03/16 13:31:52;;;;;;;4.47;1.02;;;;;;;13.72;67.81;100197.03;6114671;23;20623;-89
2024/03/16 13:34:48;;;;;;;;;;;;;;;;;;;;;
2024/03/16 13:38:05;;;;;;;;;;;;;;;;;;;;;
2024/03/16 13:41:01;;;;;;;;;;;;;;;;;;;;;
2024/03/16 13:43:55;;;;;;;;;;;;;;;;;;;;;
2024/03/16 13:47:09;;;;;;;;;;;;;;;;;;;;;
2024/03/16 13:53:13;;;;;;;;;;;;;;;;;;;;;
2024/03/16 13:56:20;;;;;;;;;;;;;;;;;;;;;
2024/03/16 14:05:34;;;;;;;;;;;;;;;;;;;;;
2024/03/16 14:08:31;;;;;;;;;;;;;;;;;;;;;
2024/03/16 14:11:07;;;;;;;5.15;1.17;;;;;;;13.11;67.12;100225.34;6070138;23;20030;-89
2024/03/16 14:13:56;;;;;;;2.03;0.90;;;;;;;13.20;69.82;100231.00;6046534;23;20033;-88
2024/03/16 14:16:49;;;;;;;6.85;1.13;;;;;;;13.27;69.23;100224.41;6069405;23;20022;-90
2024/03/16 14:20:09;;;;;;;;;;;;;;;;;;;;;
2024/03/16 14:22:45;;;;;;;4.32;1.48;;;;;;;13.45;66.58;100240.94;6065415;23;20046;-89
2024/03/16 14:25:19;;;;;;;4.15;1.40;;;;;;;13.62;70.47;100237.28;6047026;23;20128;-90
2024/03/16 14:27:56;;;;;;;;;;;;;;;;;;;;;
2024/03/16 14:30:25;;;;;;;6.75;1.63;;;;;;;13.92;70.02;100228.38;6070011;23;20022;-90
2024/03/16 14:32:54;;;;;;;6.90;1.40;;;;;;;14.10;69.37;100237.88;6045590;23;20033;-89
2024/03/16 14:35:20;;;;;;;2.17;0.90;;;;;;;14.26;69.20;100232.44;6069601;23;20081;-89
2024/03/16 14:37:46;;;;;;;3.90;1.50;;;;;;;14.45;70.57;100235.59;6046147;23;20023;-89
2024/03/16 14:40:19;;;;;;;8.98;1.73;;;;;;;14.72;70.42;100236.47;6046307;23;20026;-89
2024/03/16 14:42:50;;;;;;;6.13;1.65;;;;;;;15.08;71.01;100235.00;6045319;23;20412;-90
2024/03/16 14:45:19;;;;;;;7.70;1.70;;;;;;;15.51;69.01;100240.91;6045802;23;20022;-90
2024/03/16 14:47:44;;;;;;;5.55;1.25;;;;;;;15.87;68.17;100236.63;6046203;23;20026;-90
2024/03/16 14:50:23;;;;;;;;;;;;;;;;;;;;;
2024/03/16 14:52:52;;;;;;;4.18;1.20;;;;;;;16.18;63.68;100249.50;6069067;23;20022;-90
2024/03/16 14:55:20;;;;;;;4.03;1.30;;;;;;;16.07;62.14;100250.28;6045641;23;20480;-89
2024/03/16 14:57:46;;;;;;;2.88;1.00;;;;;;;15.89;61.14;100255.94;6069560;23;20475;-89
2024/03/16 15:00:15;;;;;;;8.65;1.70;;;;;;;15.61;58.62;100249.94;6045121;23;20351;-89
2024/03/16 15:02:43;;;;;;;4.28;1.35;;;;;;;15.36;60.81;100258.75;6045040;23;20029;-89
2024/03/16 15:05:09;;;;;;;2.78;1.20;;;;;;;15.06;61.01;100262.56;6045621;23;20026;-89
2024/03/16 15:07:42;;;;;;;3.35;1.30;;;;;;;14.79;61.57;100264.31;6045688;23;20368;-89
2024/03/16 15:10:08;;;;;;;;;;;;;;;14.55;59.82;100274.72;6070279;23;20022;-89
2024/03/16 15:12:34;;;;;;;6.45;1.13;;;;;;;14.46;65.09;100266.41;6069316;23;20336;-89
2024/03/16 15:15:03;;;;;;;7.18;1.38;;;;;;;14.53;68.16;100273.94;6045601;23;20365;-89
2024/03/16 15:17:29;;;;;;;6.22;1.40;;;;;;;14.81;70.87;100277.47;6045962;23;20034;-89
2024/03/16 15:19:54;;;;;;;5.80;1.23;;;;;;;15.28;72.83;100284.97;6070530;23;20034;-86
2024/03/16 15:22:21;;;;;;;4.28;1.40;;;;;;;15.86;73.33;100282.69;6069863;23;20061;-87
2024/03/16 15:24:47;;;;;;;3.50;0.90;;;;;;;16.56;72.93;100286.66;6046703;23;20025;-86
2024/03/16 15:29:50;;;;;;;4.25;1.30;;;;;;;17.73;65.20;100277.88;6070784;23;20027;-87
2024/03/16 15:32:15;;;;;;;2.55;1.10;;;;;;;18.01;62.25;100283.69;6046050;23;20030;-88
2024/03/16 15:34:41;;;;;;;3.42;1.23;;;;;;;18.06;59.83;100278.84;6046471;23;20098;-86
2024/03/16 15:37:08;;;;;;;2.83;1.08;;;;;;;17.96;58.24;100286.72;6046139;23;20085;-87
2024/03/16 15:39:34;;;;;;;3.05;1.23;;;;;;;17.73;57.08;100283.22;6070606;23;20034;-86
2024/03/16 15:42:00;;;;;;;3.38;1.13;;;;;;;17.43;57.05;100285.50;6045966;23;20026;-86
2024/03/16 15:44:27;;;;;;;5.07;1.42;;;;;;;17.12;57.00;100290.53;6046852;23;20026;-86
2024/03/16 15:46:53;;;;;;;5.15;1.40;;;;;;;16.83;57.78;100290.88;6046556;23;20473;-87
2024/03/16 15:49:18;;;;;;;3.55;1.25;;;;;;;16.56;58.10;100295.47;6070761;23;20022;-86
2024/03/16 15:51:44;;;;;;;5.18;1.25;;;;;;;16.31;58.26;100299.94;6070229;23;20033;-86
2024/03/16 15:54:10;;;;;;;5.15;1.80;;;;;;;16.06;58.53;100292.88;6070842;23;20026;-86
2024/03/16 15:56:35;;;;;;;5.55;1.58;;;;;;;15.83;58.59;100303.31;6070411;23;20033;-86
2024/03/16 15:59:01;;;;;;;1.95;0.98;;;;;;;15.59;59.13;100309.38;6071004;23;20029;-86
2024/03/16 16:01:28;;;;;;;5.15;1.60;;;;;;;15.38;59.06;100309.91;6070156;23;20109;-86
2024/03/16 16:03:56;;;;;;;3.53;1.35;;;;;;;15.14;57.28;100313.25;6071731;23;20034;-85
2024/03/16 16:06:25;;;;;;;5.40;1.40;;;;;;;14.93;58.90;100324.38;6070663;23;20032;-87
2024/03/16 16:08:52;;;;;;;6.60;1.50;;;;;;;14.69;58.91;100318.84;6047595;23;20026;-86
2024/03/16 16:11:17;;;;;;;3.45;1.42;;;;;;;14.45;59.13;100325.63;6046224;23;20022;-86
2024/03/16 16:13:46;;;;;;;5.45;1.38;;;;;;;14.22;58.71;100328.88;6071005;23;20070;-87
2024/03/16 16:16:12;;;;;;;5.28;1.10;;;;;;;14.01;60.61;100324.00;6071186;23;20018;-88
2024/03/16 16:18:40;;;;;;;6.05;1.10;;;;;;;13.86;60.98;100333.75;6071764;23;20372;-87
2024/03/16 16:21:09;;;;;;;5.57;1.30;;;;;;;13.69;61.25;100325.06;6071075;23;20083;-88
2024/03/16 16:23:35;;;;;;;2.47;1.00;;;;;;;13.58;62.09;100330.13;6071140;23;20363;-86
2024/03/16 16:26:00;;;;;;;5.50;1.17;;;;;;;13.46;62.15;100329.88;6070650;23;20026;-88
2024/03/16 16:28:26;;;;;;;5.65;1.77;;;;;;;13.35;62.32;100327.06;6070973;23;20066;-88
2024/03/16 16:30:52;;;;;;;5.68;1.48;;;;;;;13.25;62.39;100321.47;6070990;23;20026;-86
2024/03/16 16:33:17;;;;;;;5.35;1.73;;;;;;;13.19;62.83;100333.25;6044766;23;20452;-85
2024/03/16 16:35:49;;;;;;;4.05;1.60;;;;;;;13.12;62.81;100337.19;6070921;23;20023;-86
2024/03/16 16:38:16;;;;;;;5.03;1.47;;;;;;;13.05;63.17;100341.13;6046517;23;20498;-85
2024/03/16 16:40:43;;;;;;;6.95;1.90;;;;;;;13.00;63.42;100344.03;6046340;23;20022;-86
2024/03/16 16:43:08;;;;;;;4.53;1.48;;;;;;;12.95;63.95;100352.25;6046602;23;20026;-86
2024/03/16 16:45:34;;;;;;;5.80;1.40;;;;;;;12.91;64.20;100356.00;6046968;23;20065;-85
2024/03/16 16:48:00;;;;;;;5.25;1.73;;;;;;;12.88;64.19;100351.75;6047478;23;20130;-86
2024/03/16 16:50:25;;;;;;;6.50;1.95;;;;;;;12.85;64.15;100357.19;6048992;23;20026;-87
2024/03/16 16:52:51;;;;;;;7.03;2.28;;;;;;;12.83;64.18;100359.09;6046012;23;20026;-86
2024/03/16 16:55:17;;;;;;;6.40;2.25;;;;;;;12.80;64.58;100350.47;6046620;23;20101;-86
2024/03/16 16:57:43;;;;;;;10.43;2.05;;;;;;;12.75;64.27;100350.75;6046765;23;20467;-86
2024/03/16 17:00:10;;;;;;;5.07;1.70;;;;;;;12.71;64.17;100357.13;6047580;23;20022;-87
2024/03/16 17:02:39;;;;;;;6.25;1.75;;;;;;;12.64;62.51;100356.63;6047047;23;20471;-86
2024/03/16 17:05:12;;;;;;;9.68;2.03;;;;;;;12.59;62.61;100367.44;6072344;23;20023;-86
2024/03/16 17:07:37;;;;;;;3.55;1.67;;;;;;;12.56;64.22;100364.97;6048308;23;20026;-86
2024/03/16 17:10:12;;;;;;;2.17;1.25;;;;;;;12.50;64.16;100360.91;6047346;23;20026;-87
2024/03/16 17:12:38;;;;;;;3.40;1.20;;;;;;;12.47;64.35;100368.13;6046504;23;20049;-86
2024/03/16 17:15:08;;;;;;;5.70;1.45;;;;;;;12.41;64.19;100371.94;6071653;23;20019;-87
2024/03/16 17:17:35;;;;;;;5.30;1.73;;;;;;;12.36;63.73;100376.63;6047948;23;20228;-88
2024/03/16 17:20:01;;;;;;;4.95;1.60;;;;;;;12.30;64.46;100369.88;6046899;23;20068;-87
2024/03/16 17:22:28;;;;;;;7.30;1.40;;;;;;;12.25;64.67;100370.16;6047018;23;20033;-88
2024/03/16 17:24:54;;;;;;;3.20;1.30;;;;;;;12.21;64.41;100373.03;6049405;23;20030;-88
2024/03/16 17:27:20;;;;;;;3.50;1.45;;;;;;;12.16;64.58;100381.22;6049643;23;20423;-86
2024/03/16 17:29:45;;;;;;;6.97;1.33;;;;;;;12.12;65.06;100396.34;6073345;23;20026;-86
2024/03/16 17:32:11;;;;;;;3.58;1.00;;;;;;;12.09;65.36;100391.25;6071548;23;20529;-85
2024/03/16 17:34:37;;;;;;;5.72;1.30;;;;;;;12.05;64.68;100402.00;6073387;23;20022;-86
2024/03/16 17:37:04;;;;;;;4.38;1.27;;;;;;;12.01;64.84;100397.81;6073760;23;20022;-86
2024/03/16 17:39:31;;;;;;;4.03;1.13;;;;;;;11.98;64.78;100404.09;6072893;23;20045;-87
2024/03/16 17:41:56;;;;;;;7.78;2.00;;;;;;;11.94;64.94;100408.72;6049152;23;20033;-86
2024/03/16 17:44:22;;;;;;;6.18;1.30;;;;;;;11.91;65.03;100410.63;6073684;23;20026;-86
2024/03/16 17:46:48;;;;;;;5.28;1.33;;;;;;;11.88;65.26;100408.19;6071311;23;20102;-86
2024/03/16 17:49:14;;;;;;;8.13;2.28;;;;;;;11.84;65.55;100410.09;6046745;23;20026;-87
2024/03/16 17:51:40;;;;;;;6.18;1.70;;;;;;;11.80;65.49;100412.06;6070411;23;20078;-86
2024/03/16 17:54:06;;;;;;;6.03;1.67;;;;;;;11.78;65.72;100416.53;6047636;23;20030;-86
2024/03/16 17:56:32;;;;;;;4.60;1.67;;;;;;;11.76;65.46;100418.41;6046986;23;20026;-86
2024/03/16 17:58:58;;;;;;;9.65;1.98;;;;;;;11.73;65.72;100410.66;6049137;23;20061;-86
2024/03/16 18:01:24;;;;;;;4.53;1.63;;;;;;;11.71;65.89;100420.44;6047867;23;20029;-86
2024/03/16 18:03:49;;;;;;;7.55;2.08;;;;;;;11.70;65.98;100419.56;6072147;23;20367;-86
2024/03/16 18:06:16;;;;;;;6.28;1.77;;;;;;;11.69;66.11;100424.94;6072548;23;20027;-88
2024/03/16 18:08:41;;;;;;;4.05;1.70;;;;;;;11.66;66.17;100431.22;6049038;23;20023;-87
2024/03/16 18:11:07;;;;;;;5.80;1.73;;;;;;;11.65;66.15;100426.00;6048405;23;20467;-88
2024/03/16 18:13:33;;;;;;;9.45;2.10;;;;;;;11.63;66.10;100438.44;6048893;23;20026;-86
2024/03/16 18:15:59;;;;;;;6.47;1.73;;;;;;;11.61;66.34;100438.50;6072224;23;20128;-86
2024/03/16 18:18:25;;;;;;;8.05;2.13;;;;;;;11.59;66.17;100441.22;6048204;23;20027;-86
2024/03/16 18:23:41;;;;;;;3.97;1.75;;;;;;;11.49;63.69;100450.53;6091102;23;20022;-89
2024/03/16 18:26:07;;;;;;;5.63;1.65;;;;;;;11.52;66.31;100449.53;6048340;23;20415;-88
2024/03/16 18:32:00;;;;;;;8.05;2.38;;;;;;;11.42;66.37;100451.75;6072236;23;20029;-89
2024/03/16 18:34:26;;;;;;;6.57;1.65;;;;;;;11.38;66.09;100456.34;6047740;23;20022;-88
2024/03/16 18:40:46;;;;;;;6.90;1.85;;;;;;;11.25;64.51;100447.31;6097554;23;20073;-89
2024/03/16 18:43:17;;;;;;;6.70;1.90;;;;;;;11.23;66.37;100455.31;6048200;23;20023;-88
2024/03/16 18:45:56;;;;;;;8.15;2.22;;;;;;;11.11;64.32;100451.47;6071961;23;20018;-89
2024/03/16 18:48:22;;;;;;;5.43;2.05;;;;;;;11.11;66.49;100462.03;6048236;23;20026;-88
2024/03/16 18:50:47;;;;;;;6.97;2.35;;;;;;;11.04;66.59;100453.56;6048218;23;20065;-89
2024/03/16 18:53:28;;;;;;;5.45;2.15;;;;;;;10.95;64.77;100451.34;6048071;23;20454;-89
2024/03/16 18:55:54;;;;;;;5.50;2.30;;;;;;;10.95;66.75;100452.22;6071981;23;20018;-88
2024/03/16 18:58:19;;;;;;;5.05;1.80;;;;;;;10.92;66.92;100457.59;6072197;23;20049;-89
2024/03/16 19:01:20;;;;;;;7.68;2.20;;;;;;;10.85;64.85;100457.97;6071978;23;20093;-89
2024/03/16 19:03:46;;;;;;;4.45;1.90;;;;;;;10.86;67.22;100463.19;6048097;23;20041;-89
2024/03/16 19:06:29;;;;;;;6.22;2.03;;;;;;;10.77;64.85;100463.63;6071762;23;20453;-88
2024/03/16 19:08:55;;;;;;;7.28;2.10;;;;;;;10.76;67.18;100462.75;6071957;23;20030;-88
2024/03/16 19:11:23;;;;;;;6.32;1.73;;;;;;;10.71;66.43;100466.50;6047951;23;20477;-89
2024/03/16 19:13:52;;;;;;;7.57;2.30;;;;;;;10.67;66.74;100468.44;6048557;23;20081;-89
2024/03/16 19:16:29;;;;;;;5.90;2.08;;;;;;;10.58;65.54;100472.34;6048518;23;20019;-89
2024/03/16 19:19:00;;;;;;;9.48;2.60;;;;;;;10.59;67.51;100474.06;6048608;23;20022;-89
2024/03/16 19:21:27;;;;;;;8.27;2.70;;;;;;;10.57;67.47;100488.22;6071661;23;20349;-88
2024/03/16 19:24:04;;;;;;;5.20;2.05;;;;;;;10.49;65.76;100481.53;6043324;23;20473;-90
2024/03/16 19:26:30;;;;;;;7.65;1.95;;;;;;;10.50;67.73;100490.28;6047783;23;20034;-88
2024/03/16 19:28:56;;;;;;;7.00;2.08;;;;;;;10.47;67.74;100480.72;6071642;23;20457;-87
2024/03/16 19:32:00;;;;;;;6.28;2.25;;;;;;;10.39;65.70;100485.47;6071465;23;20066;-88
2024/03/16 19:34:26;;;;;;;12.98;2.40;;;;;;;10.39;67.70;100488.09;6071540;23;20030;-88
2024/03/16 19:37:05;;;;;;;5.88;1.83;;;;;;;10.31;65.92;100485.78;6047667;23;20066;-88
2024/03/16 19:39:32;;;;;;;4.80;1.90;;;;;;;10.29;67.35;100485.84;6071522;23;20030;-88
2024/03/16 19:41:57;;;;;;;6.47;2.30;;;;;;;10.25;67.55;100492.16;6047695;23;20026;-88
2024/03/16 19:44:41;;;;;;;6.35;2.28;;;;;;;10.16;65.93;100495.19;6071465;23;20449;-88
2024/03/16 19:47:08;;;;;;;9.30;2.28;;;;;;;10.14;67.89;100494.44;6047536;23;20022;-88
2024/03/16 19:49:34;;;;;;;4.22;2.15;;;;;;;10.08;67.70;100499.94;6047595;23;20339;-88
2024/03/16 19:52:39;;;;;;;7.80;2.35;;;;;;;9.97;66.13;100509.16;6047516;23;20029;-88
2024/03/16 19:55:05;;;;;;;11.32;2.53;;;;;;;9.97;68.07;100503.03;6047409;23;20475;-88
2024/03/16 19:57:58;;;;;;;5.43;2.42;;;;;;;9.87;66.61;100505.22;6047709;23;20022;-88
2024/03/16 20:00:25;;;;;;;6.18;1.83;;;;;;;9.87;68.70;100513.94;6071430;23;20018;-88
2024/03/16 20:02:55;;;;;;;6.88;2.65;;;;;;;9.82;67.59;100517.69;6047318;23;20026;-88
2024/03/16 20:05:20;;;;;;;6.95;2.05;;;;;;;9.80;68.87;100512.50;6071268;23;20077;-88
2024/03/16 20:07:51;;;;;;;8.63;2.08;;;;;;;9.76;67.65;100510.91;6071472;23;20026;-88
2024/03/16 20:10:17;;;;;;;8.32;2.60;;;;;;;9.75;68.93;100507.44;6071334;23;20512;-88
2024/03/16 20:12:42;;;;;;;9.15;2.58;;;;;;;9.72;69.10;100515.44;6047447;23;20026;-88
2024/03/16 20:15:11;;;;;;;6.55;2.35;;;;;;;9.70;69.27;100517.28;6071255;23;20018;-88
2024/03/16 20:17:39;;;;;;;6.90;2.38;;;;;;;9.71;69.40;100515.50;6072137;23;20030;-96
2024/03/16 20:23:52;;;;;;;7.63;2.85;;;;;;;9.64;69.30;100528.03;6098419;23;20114;-96
2024/03/16 20:33:45;;;;;;;7.13;1.73;;;;;;;9.55;69.86;100520.53;6098397;23;20021;-96
2024/03/16 20:39:51;;;;;;;4.95;1.98;;;;;;;9.48;69.96;100520.78;6098390;23;20479;-96
2024/03/16 20:45:58;;;;;;;7.22;2.15;;;;;;;9.43;69.91;100529.75;6098254;23;20021;-96
2024/03/16 20:52:11;;;;;;;4.90;2.35;;;;;;;9.36;70.17;100537.03;6098245;23;20026;-96
2024/03/16 20:58:25;;;;;;;5.32;2.10;;;;;;;9.30;70.65;100539.91;6099360;23;20022;-96
2024/03/16 21:04:38;;;;;;;5.63;2.30;;;;;;;9.22;70.62;100541.06;6100029;23;20097;-96
2024/03/16 21:10:51;;;;;;;5.18;2.30;;;;;;;9.19;70.97;100537.72;6100244;23;20041;-96
2024/03/16 21:17:04;;;;;;;6.25;1.90;;;;;;;9.15;71.13;100547.44;6100015;23;20067;-96
2024/03/16 21:23:17;;;;;;;9.00;2.28;;;;;;;9.10;71.14;100542.41;6099941;23;20095;-96
2024/03/16 21:33:28;;;;;;;9.73;2.30;;;;;;;9.03;70.77;100545.28;6099850;23;20045;-95
2024/03/16 21:39:41;;;;;;;8.68;2.13;;;;;;;8.99;71.62;100549.81;6099806;23;20089;-96
2024/03/16 21:45:54;;;;;;;6.93;2.42;;;;;;;8.95;71.66;100558.72;6099569;23;20098;-96
2024/03/16 21:52:01;;;;;;;5.95;1.90;;;;;;;8.92;71.77;100559.69;6099692;23;20040;-96
2024/03/16 21:58:07;;;;;;;6.50;2.08;;;;;;;8.90;71.71;100555.41;6099672;23;20021;-96
2024/03/16 22:04:20;;;;;;;7.20;2.35;;;;;;;8.86;71.91;100570.44;6099460;23;20021;-96
2024/03/16 22:10:33;;;;;;;4.28;1.80;;;;;;;8.83;71.84;100565.28;6099618;23;20088;-96
2024/03/16 22:16:39;;;;;;;8.13;2.30;;;;;;;8.80;72.03;100566.25;6099467;23;20464;-96
2024/03/16 22:22:50;;;;;;;8.27;2.08;;;;;;;8.74;71.33;100563.84;6099473;23;20570;-96
2024/03/16 22:28:56;;;;;;;5.97;1.73;;;;;;;8.67;71.50;100567.63;6099310;23;20045;-96
2024/03/16 22:35:13;;;;;;;7.13;2.03;;;;;;;8.57;71.84;100573.16;6099180;23;20018;-96
2024/03/16 22:41:29;;;;;;;6.97;2.15;;;;;;;8.47;71.25;100583.13;6099153;23;20124;-96
2024/03/16 22:47:41;;;;;;;12.05;2.20;;;;;;;8.33;71.78;100583.59;6099138;23;20101;-96
2024/03/16 22:53:47;;;;;;;6.13;2.30;;;;;;;8.21;71.66;100592.75;6098971;23;20089;-96
2024/03/16 22:59:54;;;;;;;5.93;2.08;;;;;;;8.12;72.25;100585.19;6098934;23;20061;-96
2024/03/16 23:06:00;;;;;;;7.55;2.30;;;;;;;8.10;73.16;100591.41;6097575;23;20464;-88
2024/03/16 23:08:44;;;;;;;13.82;3.42;;;;;;;8.06;71.83;100590.63;6047755;23;20026;-87
2024/03/16 23:11:10;;;;;;;7.97;2.70;;;;;;;8.12;73.30;100590.44;6047912;23;20022;-88
2024/03/16 23:13:49;;;;;;;9.23;2.67;;;;;;;8.11;72.48;100583.44;6071791;23;20029;-88
2024/03/16 23:16:15;;;;;;;9.18;2.55;;;;;;;8.18;73.46;100591.97;6047728;23;20026;-88
2024/03/16 23:18:57;;;;;;;12.27;2.83;;;;;;;8.16;72.27;100589.41;6047888;23;20102;-88
2024/03/16 23:21:24;;;;;;;11.75;2.55;;;;;;;8.22;73.71;100590.97;6047673;23;20029;-88
2024/03/16 23:23:52;;;;;;;11.23;2.60;;;;;;;8.25;73.63;100585.63;6047975;23;20045;-88
2024/03/16 23:26:32;;;;;;;11.52;2.78;;;;;;;8.24;72.13;100583.03;6071364;23;20334;-88
2024/03/16 23:28:57;;;;;;;9.98;2.50;;;;;;;8.31;73.64;100584.56;6071448;23;20349;-88
2024/03/16 23:31:24;;;;;;;9.80;2.55;;;;;;;8.31;73.21;100587.19;6047515;23;20026;-88
2024/03/16 23:33:53;;;;;;;7.93;2.45;;;;;;;8.34;73.39;100592.34;6071639;23;20022;-88
2024/03/16 23:36:19;;;;;;;10.15;2.75;;;;;;;8.36;73.79;100585.25;6071428;23;20025;-88
2024/03/16 23:39:22;;;;;;;6.82;2.50;;;;;;;8.34;72.09;100584.47;6047622;23;20031;-88
2024/03/16 23:41:48;;;;;;;9.90;2.25;;;;;;;8.40;73.52;100586.00;6071499;23;20018;-88
2024/03/16 23:44:22;;;;;;;11.27;2.67;;;;;;;8.38;72.30;100586.06;6047544;23;20026;-88
2024/03/16 23:46:48;;;;;;;12.63;2.45;;;;;;;8.41;73.01;100593.81;6071586;23;20315;-88
2024/03/16 23:49:13;;;;;;;6.68;2.67;;;;;;;8.41;73.00;100596.44;6071530;23;20161;-88
2024/03/16 23:51:41;;;;;;;8.65;2.83;;;;;;;8.36;72.38;100593.13;6047530;23;20022;-88
2024/03/16 23:54:18;;;;;;;7.97;2.42;;;;;;;8.29;71.20;100592.47;6047636;23;20027;-88
2024/03/16 23:56:44;;;;;;;10.50;2.72;;;;;;;8.29;72.76;100594.22;6071475;23;20026;-88
2024/03/16 23:59:29;;;;;;;10.07;2.53;;;;;;;8.18;71.09;100603.31;6071421;23;20034;-88
